LOS ANGELES INTL

KLAX (LAX)
Los Angeles, California
Towered

Vatsim Metar:
KLAX 181353Z 26006KT 8SM FEW009 SCT080 BKN140 19/17 A2995 RMK AO2 SLP140 T01890167

No ATC Online

Traffic

Inbound:
Ident
Type
Name
ETA
Phase
FBW32
A20N
Emilio Largo KLAX
14:59 Z
Cruse
DAL1095
B739
Denis Silard LEVC
15:00 Z
Cruse
SWA150
B738
1467095
15:16 Z
Climb
SWA192
B737
Jay Rohwer KMKE
15:10 Z
Climb
SWA3037
B738
John Trontz KPBI
Taxiing Out
DAL1142
B738
Adam Ciereszko EPGD
Boarding
AAL1641
B77W
Gael M. KJFK
16:06 Z
Cruse
MMZ24TP
B77W
Afonso Correia LPVZ
16:06 Z
Cruse
TXS51
B744
Bill Bridges KSAT
16:20 Z
Cruse
BKN2387
B739
Kevin Soto KMCO
16:54 Z
Cruse
ACA783
B77W
Steve Pupkar KBOS
18:34 Z
Cruse
UPS66
B744
Mika EHAM
20:19 Z
Climb
BAW283
B77W
Daniel Exposito LEMD
18:12 Z
Cruse
AAL1609
A21N
1160241
21:43 Z
Climb
UAE83M
B77W
Devon CYVR
22:15 Z
Descent
AAL382
B77W
Sushanth Saseendran CYYZ
22:48 Z
Cruse
ANZ1010
B77W
Anthony LROP
Unknown

Outbound:
Ident
Type
Name
Destination
Phase
AAL1612
B738
Joao Teixeira SBGO
KPHL
Taxiing Out
DAL958
A321
Justin Bisono KJFK
KJFK
Boarding